Terminal Aerodrome Forecast
Issued by NWS Wakefield, VA

Home | Current Version | Previous Version | Text Only | Print | Product List | Glossary On
Versions: 1 2 3 4 5 6 7 8 9 10 11 12 13 14 15 16 17 18 19 20 21 22
000
FTUS41 KAKQ 251137
TAFECG
TAF
KECG 251137Z 2512/2612 26007KT P6SM SCT250
     FM251400 33006KT P6SM SCT250
     FM251700 04006KT P6SM SCT050 SCT250
     FM260300 03005KT P6SM SKC=

USA.gov is the U.S. government's official web portal to all federal, state and local government web resources and services.